createdAt,value
2022-09-11T00:00:52.894Z,58.07
2022-09-11T00:03:21.514Z,58.18
2022-09-11T00:05:49.395Z,58.22
2022-09-11T00:08:18.569Z,58.12
2022-09-11T00:10:48.342Z,58.21
2022-09-11T00:13:21.432Z,58.38
2022-09-11T00:15:50.446Z,58.15
2022-09-11T00:18:21.760Z,58.35
2022-09-11T00:20:50.714Z,58.63
2022-09-11T00:23:18.715Z,58.11
2022-09-11T00:25:46.762Z,58.65
2022-09-11T00:28:16.136Z,58.52
2022-09-11T00:30:45.591Z,58.27
2022-09-11T00:33:13.525Z,58.54
2022-09-11T00:35:41.520Z,58.45
2022-09-11T00:38:12.125Z,58.64
2022-09-11T00:40:46.600Z,58.33
2022-09-11T00:43:14.907Z,58.47
2022-09-11T00:45:42.810Z,58.35
2022-09-11T00:48:12.186Z,58.45
2022-09-11T00:50:40.109Z,58.64
2022-09-11T00:53:09.960Z,58.76
2022-09-11T00:55:37.945Z,58.66
2022-09-11T00:58:06.944Z,58.36
2022-09-11T01:00:35.206Z,58.70
2022-09-11T01:03:03.247Z,58.79
2022-09-11T01:05:34.788Z,58.80
2022-09-11T01:08:03.725Z,58.84
2022-09-11T01:10:51.729Z,58.75
2022-09-11T01:13:24.829Z,58.75
2022-09-11T01:15:54.965Z,58.60
2022-09-11T01:18:26.932Z,58.62
2022-09-11T01:21:06.097Z,58.57
2022-09-11T01:23:56.644Z,58.96
2022-09-11T01:26:34.918Z,58.71
2022-09-11T01:29:07.169Z,59.04
2022-09-11T01:31:37.416Z,58.55
2022-09-11T01:34:06.819Z,58.87
2022-09-11T01:36:36.649Z,58.66
2022-09-11T01:39:04.621Z,58.88
2022-09-11T01:41:33.876Z,58.46
2022-09-11T01:44:03.836Z,59.06
2022-09-11T01:46:35.293Z,58.94
2022-09-11T01:49:06.661Z,58.87
2022-09-11T01:51:34.585Z,59.00
2022-09-11T01:54:02.618Z,58.62
2022-09-11T01:56:32.232Z,58.89
2022-09-11T01:59:01.069Z,58.94
2022-09-11T02:01:30.135Z,59.02
2022-09-11T02:04:01.116Z,58.76
2022-09-11T02:06:31.681Z,59.01
2022-09-11T02:09:00.344Z,58.83
2022-09-11T02:11:29.429Z,58.82
2022-09-11T02:13:59.899Z,58.68
2022-09-11T02:16:35.269Z,59.12
2022-09-11T02:19:05.537Z,58.67
2022-09-11T02:21:33.816Z,58.88
2022-09-11T02:24:01.788Z,58.87
2022-09-11T02:26:31.339Z,58.85
2022-09-11T02:28:59.250Z,58.89
2022-09-11T02:31:28.160Z,58.88
2022-09-11T02:33:56.103Z,58.72
2022-09-11T02:36:39.595Z,58.76
2022-09-11T02:39:17.099Z,58.85
2022-09-11T02:41:50.400Z,58.76
2022-09-11T02:44:21.333Z,58.58
2022-09-11T02:46:56.981Z,58.64
2022-09-11T02:49:27.345Z,58.39
2022-09-11T02:52:03.736Z,58.65
2022-09-11T02:54:35.305Z,58.64
2022-09-11T02:57:05.386Z,58.53
2022-09-11T02:59:35.117Z,58.81
2022-09-11T03:02:02.985Z,58.47
2022-09-11T03:04:31.343Z,58.56
2022-09-11T03:07:00.741Z,58.36
2022-09-11T03:09:28.753Z,58.85
2022-09-11T03:11:56.627Z,58.89
2022-09-11T03:14:24.517Z,58.51
2022-09-11T03:16:52.570Z,58.76
2022-09-11T03:19:20.455Z,58.64
2022-09-11T03:21:48.353Z,58.76
2022-09-11T03:24:17.904Z,58.73
2022-09-11T03:26:45.781Z,58.29
2022-09-11T03:29:13.722Z,58.35
2022-09-11T03:31:41.683Z,58.36
2022-09-11T03:34:10.353Z,58.43
2022-09-11T03:36:38.267Z,58.58
2022-09-11T03:39:06.433Z,58.64
2022-09-11T03:41:35.746Z,58.37
2022-09-11T03:44:04.080Z,58.33
2022-09-11T03:46:33.089Z,58.41
2022-09-11T03:49:01.166Z,58.25
2022-09-11T03:51:30.033Z,58.34
2022-09-11T03:53:59.657Z,58.41
2022-09-11T03:56:27.743Z,58.47
2022-09-11T03:58:58.244Z,58.06
2022-09-11T04:01:26.413Z,58.37
2022-09-11T04:03:54.571Z,58.29
2022-09-11T04:06:22.487Z,58.32
2022-09-11T04:08:50.419Z,58.14
2022-09-11T04:11:18.276Z,58.59
2022-09-11T04:13:46.174Z,58.39
2022-09-11T04:16:16.274Z,58.40
2022-09-11T04:18:45.908Z,58.29
2022-09-11T04:21:14.803Z,58.30
2022-09-11T04:23:42.823Z,58.73
2022-09-11T04:26:15.860Z,58.29
2022-09-11T04:28:43.910Z,58.15
2022-09-11T04:31:11.996Z,58.56
2022-09-11T04:33:41.520Z,58.19
2022-09-11T04:36:10.243Z,58.67
2022-09-11T04:38:38.353Z,58.05
2022-09-11T04:41:06.940Z,58.65
2022-09-11T04:43:35.289Z,58.22
2022-09-11T04:46:03.492Z,58.42
2022-09-11T04:48:31.460Z,58.66
2022-09-11T04:51:05.470Z,58.68
2022-09-11T04:53:33.408Z,58.63
2022-09-11T04:56:05.660Z,58.76
2022-09-11T04:58:33.559Z,58.79
2022-09-11T05:01:01.474Z,58.39
2022-09-11T05:03:29.917Z,58.53
2022-09-11T05:05:57.819Z,58.41
2022-09-11T05:08:27.654Z,58.72
2022-09-11T05:10:55.567Z,58.46
2022-09-11T05:13:23.607Z,58.62
2022-09-11T05:15:51.525Z,58.84
2022-09-11T05:18:19.404Z,58.59
2022-09-11T05:20:47.278Z,58.21
2022-09-11T05:23:15.220Z,58.28
2022-09-11T05:25:44.435Z,58.37
2022-09-11T05:28:12.517Z,58.67
2022-09-11T05:30:40.367Z,58.69
2022-09-11T05:33:08.983Z,58.39
2022-09-11T05:35:36.884Z,58.38
2022-09-11T05:38:04.813Z,58.61
2022-09-11T05:40:32.700Z,58.73
2022-09-11T05:43:02.267Z,58.29
2022-09-11T05:45:30.329Z,58.30
2022-09-11T05:47:58.300Z,58.65
2022-09-11T05:50:26.472Z,58.20
2022-09-11T05:52:54.582Z,58.23
2022-09-11T05:55:22.465Z,58.30
2022-09-11T05:57:51.463Z,58.22
2022-09-11T06:00:21.021Z,58.13
2022-09-11T06:02:49.137Z,58.04
2022-09-11T06:05:17.302Z,58.05
2022-09-11T06:07:45.208Z,58.06
2022-09-11T06:10:13.063Z,58.49
2022-09-11T06:12:40.966Z,58.23
2022-09-11T06:15:24.918Z,58.27
2022-09-11T06:17:59.548Z,58.39
2022-09-11T06:20:27.417Z,58.07
2022-09-11T06:22:56.610Z,58.11
2022-09-11T06:25:25.256Z,57.93
2022-09-11T06:27:53.161Z,58.38
2022-09-11T06:30:21.093Z,58.01
2022-09-11T06:32:49.741Z,57.90
2022-09-11T06:35:19.091Z,57.84
2022-09-11T06:37:47.072Z,58.01
2022-09-11T06:40:15.038Z,57.79
2022-09-11T06:42:42.971Z,57.70
2022-09-11T06:45:11.997Z,57.76
2022-09-11T06:47:39.871Z,57.70
2022-09-11T06:50:08.311Z,57.45
2022-09-11T06:52:37.591Z,57.52
2022-09-11T06:55:05.975Z,57.67
2022-09-11T06:57:33.879Z,57.48
2022-09-11T07:00:01.713Z,57.58
2022-09-11T07:02:29.639Z,57.74
2022-09-11T07:04:57.529Z,57.61
2022-09-11T07:07:25.469Z,57.20
2022-09-11T07:09:54.738Z,57.12
2022-09-11T07:12:23.943Z,57.26
2022-09-11T07:14:51.860Z,57.51
2022-09-11T07:17:19.874Z,57.05
2022-09-11T07:19:47.722Z,57.51
2022-09-11T07:22:15.764Z,57.23
2022-09-11T07:24:43.621Z,56.98
2022-09-11T07:27:13.907Z,57.34
2022-09-11T07:29:41.823Z,57.30
2022-09-11T07:32:10.081Z,57.20
2022-09-11T07:34:37.975Z,57.29
2022-09-11T07:37:06.050Z,57.32
2022-09-11T07:39:33.894Z,56.96
2022-09-11T07:42:01.824Z,56.86
2022-09-11T07:44:31.086Z,57.13
2022-09-11T07:46:59.082Z,56.98
2022-09-11T07:49:27.386Z,56.76
2022-09-11T07:51:55.346Z,57.20
2022-09-11T07:54:23.252Z,56.77
2022-09-11T07:56:51.108Z,57.09
2022-09-11T07:59:19.195Z,56.95
2022-09-11T08:01:50.185Z,56.86
2022-09-11T08:04:18.114Z,57.00
2022-09-11T08:06:46.014Z,56.69
2022-09-11T08:09:15.631Z,56.46
2022-09-11T08:11:45.158Z,56.53
2022-09-11T08:14:14.356Z,56.73
2022-09-11T08:16:42.405Z,56.74
2022-09-11T08:19:17.243Z,56.57
2022-09-11T08:21:45.342Z,56.23
2022-09-11T08:24:13.487Z,56.25
2022-09-11T08:26:43.714Z,56.43
2022-09-11T08:29:13.609Z,56.28
2022-09-11T08:31:41.633Z,56.43
2022-09-11T08:34:12.204Z,56.49
2022-09-11T08:36:40.211Z,55.96
2022-09-11T08:39:09.120Z,56.05
2022-09-11T08:41:42.052Z,56.13
2022-09-11T08:44:15.331Z,56.06
2022-09-11T08:46:45.535Z,55.96
2022-09-11T08:49:19.273Z,55.78
2022-09-11T08:51:48.901Z,55.59
2022-09-11T08:54:32.017Z,55.66
2022-09-11T08:57:07.109Z,55.45
2022-09-11T09:00:12.726Z,55.54
2022-09-11T09:02:54.982Z,55.69
2022-09-11T09:05:29.395Z,55.74
2022-09-11T09:08:04.942Z,55.57
2022-09-11T09:10:40.596Z,55.70
2022-09-11T09:13:15.199Z,55.56
2022-09-11T09:15:44.392Z,55.57
2022-09-11T09:18:13.619Z,55.44
2022-09-11T09:20:45.238Z,55.38
2022-09-11T09:23:15.048Z,55.70
2022-09-11T09:25:43.385Z,55.27
2022-09-11T09:28:18.734Z,55.20
2022-09-11T09:30:49.665Z,55.18
2022-09-11T09:33:27.212Z,55.02
2022-09-11T09:35:57.102Z,54.96
2022-09-11T09:38:28.239Z,54.85
2022-09-11T09:41:00.853Z,54.84
2022-09-11T09:43:36.720Z,54.81
2022-09-11T09:46:13.039Z,54.47
2022-09-11T09:48:41.074Z,54.59
2022-09-11T09:51:14.141Z,54.69
2022-09-11T09:53:43.302Z,54.42
2022-09-11T09:56:11.778Z,54.43
2022-09-11T09:58:42.376Z,54.40
2022-09-11T10:01:25.482Z,54.52
2022-09-11T10:04:06.680Z,54.78
2022-09-11T10:06:36.106Z,54.75
2022-09-11T10:09:03.962Z,54.90
2022-09-11T10:11:31.862Z,54.77
2022-09-11T10:14:00.214Z,54.54
2022-09-11T10:16:28.556Z,54.54
2022-09-11T10:18:56.909Z,54.30
2022-09-11T10:21:29.397Z,54.19
2022-09-11T10:23:59.716Z,54.22
2022-09-11T10:26:30.045Z,54.09
2022-09-11T10:29:01.045Z,53.89
2022-09-11T10:31:30.151Z,53.91
2022-09-11T10:33:58.833Z,53.81
2022-09-11T10:36:28.251Z,54.05
2022-09-11T10:38:56.382Z,54.26
2022-09-11T10:41:26.223Z,54.18
2022-09-11T10:43:56.650Z,54.23
2022-09-11T10:46:38.557Z,54.20
2022-09-11T10:49:16.491Z,53.94
2022-09-11T10:51:57.158Z,54.11
2022-09-11T10:54:31.279Z,53.96
2022-09-11T10:57:05.427Z,53.92
2022-09-11T10:59:40.856Z,53.90
2022-09-11T11:02:19.058Z,53.82
2022-09-11T11:04:46.989Z,53.90
2022-09-11T11:07:21.415Z,53.76
2022-09-11T11:09:55.426Z,53.78
2022-09-11T11:12:33.378Z,53.78
2022-09-11T11:15:26.956Z,54.17
2022-09-11T11:18:06.501Z,53.87
2022-09-11T11:20:37.320Z,53.83
2022-09-11T11:23:18.769Z,53.77
2022-09-11T11:25:50.398Z,53.76
2022-09-11T11:28:47.917Z,53.97
2022-09-11T11:31:23.629Z,53.84
2022-09-11T11:33:59.847Z,53.88
2022-09-11T11:36:31.721Z,53.79
2022-09-11T11:39:02.214Z,53.68
2022-09-11T11:41:31.404Z,53.64
2022-09-11T11:44:02.599Z,53.79
2022-09-11T11:46:31.715Z,53.64
2022-09-11T11:49:00.415Z,53.74
2022-09-11T11:51:28.915Z,53.72
2022-09-11T11:54:00.532Z,53.85
2022-09-11T11:56:33.422Z,53.91
2022-09-11T11:59:04.356Z,54.15
2022-09-11T12:01:37.408Z,54.11
2022-09-11T12:04:06.329Z,53.94
2022-09-11T12:06:35.311Z,54.08
2022-09-11T12:09:03.294Z,54.00
2022-09-11T12:11:32.571Z,54.01
2022-09-11T12:14:00.447Z,54.13
2022-09-11T12:16:31.780Z,54.24
2022-09-11T12:19:08.115Z,54.10
2022-09-11T12:21:40.800Z,54.13
2022-09-11T12:24:19.878Z,54.23
2022-09-11T12:26:47.774Z,53.89
2022-09-11T12:29:43.878Z,54.16
2022-09-11T12:32:29.062Z,54.17
2022-09-11T12:35:00.157Z,54.10
2022-09-11T12:37:28.587Z,53.93
2022-09-11T12:39:59.971Z,54.20
2022-09-11T12:42:47.665Z,54.17
2022-09-11T12:45:31.572Z,54.34
2022-09-11T12:48:09.722Z,53.89
2022-09-11T12:50:37.763Z,54.21
2022-09-11T12:53:05.747Z,53.94
2022-09-11T12:55:35.415Z,54.19
2022-09-11T12:58:04.456Z,54.35
2022-09-11T13:00:36.270Z,54.07
2022-09-11T13:03:04.203Z,53.86
2022-09-11T13:05:37.729Z,53.62
2022-09-11T13:08:07.598Z,53.63
2022-09-11T13:10:36.660Z,54.01
2022-09-11T13:13:05.616Z,53.69
2022-09-11T13:15:37.921Z,53.73
2022-09-11T13:18:33.030Z,54.08
2022-09-11T13:21:14.300Z,53.95
2022-09-11T13:23:42.963Z,53.93
2022-09-11T13:26:15.291Z,53.89
2022-09-11T13:28:45.457Z,53.47
2022-09-11T13:31:15.511Z,53.55
2022-09-11T13:33:43.630Z,53.55
2022-09-11T13:36:14.191Z,53.26
2022-09-11T13:38:42.291Z,53.37
2022-09-11T13:41:14.391Z,53.52
2022-09-11T13:43:45.257Z,52.86
2022-09-11T13:46:21.221Z,52.09
2022-09-11T13:48:50.187Z,52.47
2022-09-11T13:51:21.198Z,50.93
2022-09-11T13:53:56.139Z,50.56
2022-09-11T13:56:47.147Z,50.01
2022-09-11T13:59:38.440Z,48.52
2022-09-11T14:02:08.649Z,46.14
2022-09-11T14:04:40.687Z,44.22
2022-09-11T14:07:17.307Z,43.22
2022-09-11T14:09:48.744Z,43.73
2022-09-11T14:12:16.606Z,44.15
2022-09-11T14:14:47.008Z,43.54
2022-09-11T14:17:17.200Z,43.60
2022-09-11T14:19:45.638Z,44.38
2022-09-11T14:22:22.738Z,43.78
2022-09-11T14:24:55.042Z,43.46
2022-09-11T14:27:36.573Z,43.45
2022-09-11T14:30:24.750Z,43.34
2022-09-11T14:33:16.734Z,43.51
2022-09-11T14:35:46.280Z,43.77
2022-09-11T14:38:16.040Z,43.91
2022-09-11T14:40:48.599Z,44.36
2022-09-11T14:43:17.581Z,44.70
2022-09-11T14:45:45.558Z,44.67
2022-09-11T14:48:14.442Z,45.15
2022-09-11T14:50:42.514Z,45.33
2022-09-11T14:53:17.000Z,45.42
2022-09-11T14:55:44.884Z,45.64
2022-09-11T14:58:12.771Z,45.76
2022-09-11T15:00:41.057Z,46.22
2022-09-11T15:03:09.025Z,45.87
2022-09-11T15:05:38.038Z,45.98
2022-09-11T15:08:06.250Z,46.18
2022-09-11T15:10:35.695Z,46.38
2022-09-11T15:13:04.335Z,46.24
2022-09-11T15:15:35.082Z,46.43
2022-09-11T15:18:03.048Z,46.24
2022-09-11T15:20:30.936Z,46.23
2022-09-11T15:22:58.857Z,46.19
2022-09-11T15:25:26.766Z,46.00
2022-09-11T15:27:56.068Z,46.48
2022-09-11T15:30:25.686Z,45.90
2022-09-11T15:32:53.621Z,46.12
2022-09-11T15:35:23.236Z,46.30
2022-09-11T15:37:51.546Z,46.40
2022-09-11T15:40:19.451Z,46.45
2022-09-11T15:42:49.750Z,46.54
2022-09-11T15:45:19.467Z,46.97
2022-09-11T15:47:47.674Z,47.26
2022-09-11T15:50:18.239Z,47.99
2022-09-11T15:52:46.857Z,48.14
2022-09-11T15:55:14.855Z,48.08
2022-09-11T15:57:44.223Z,48.14
2022-09-11T16:00:15.238Z,48.86
2022-09-11T16:02:44.527Z,48.70
2022-09-11T16:05:12.412Z,49.23
2022-09-11T16:07:41.226Z,48.98
2022-09-11T16:10:10.039Z,48.91
2022-09-11T16:12:38.366Z,48.88
2022-09-11T16:15:07.188Z,49.11
2022-09-11T16:17:35.230Z,49.18
2022-09-11T16:20:04.921Z,49.59
2022-09-11T16:22:34.535Z,49.42
2022-09-11T16:25:02.756Z,49.88
2022-09-11T16:27:30.632Z,49.76
2022-09-11T16:30:26.217Z,50.18
2022-09-11T16:32:46.737Z,49.82
2022-09-11T16:35:17.535Z,50.06
2022-09-11T16:37:45.705Z,50.51
2022-09-11T16:40:13.618Z,50.13
2022-09-11T16:42:41.555Z,50.22
2022-09-11T16:45:10.160Z,50.76
2022-09-11T16:47:38.075Z,50.86
2022-09-11T16:50:07.803Z,50.54
2022-09-11T16:52:38.613Z,50.77
2022-09-11T16:55:07.747Z,51.23
2022-09-11T16:57:35.653Z,51.22
2022-09-11T17:00:04.520Z,51.17
2022-09-11T17:02:32.391Z,51.58
2022-09-11T17:05:00.293Z,51.41
2022-09-11T17:07:28.186Z,51.98
2022-09-11T17:09:57.412Z,52.01
2022-09-11T17:12:25.314Z,51.81
2022-09-11T17:14:53.199Z,52.17
2022-09-11T17:17:21.406Z,52.04
2022-09-11T17:19:51.132Z,52.06
2022-09-11T17:22:19.206Z,52.54
2022-09-11T17:24:47.108Z,52.28
2022-09-11T17:27:16.536Z,52.34
2022-09-11T17:29:44.974Z,52.93
2022-09-11T17:32:27.962Z,52.77
2022-09-11T17:34:56.804Z,53.09
2022-09-11T17:37:25.884Z,53.07
2022-09-11T17:39:53.892Z,53.20
2022-09-11T17:42:23.797Z,53.00
2022-09-11T17:44:51.691Z,53.32
2022-09-11T17:47:19.605Z,53.75
2022-09-11T17:49:48.401Z,53.61
2022-09-11T17:52:16.290Z,53.68
2022-09-11T17:54:44.129Z,54.00
2022-09-11T17:57:12.306Z,54.09
2022-09-11T17:59:42.539Z,54.04
2022-09-11T18:02:11.683Z,54.32
2022-09-11T18:04:39.718Z,54.57
2022-09-11T18:07:07.723Z,54.36
2022-09-11T18:09:35.620Z,54.64
2022-09-11T18:12:04.126Z,54.80
2022-09-11T18:14:32.304Z,54.59
2022-09-11T18:17:01.538Z,54.72
2022-09-11T18:19:30.267Z,54.89
2022-09-11T18:21:59.747Z,54.84
2022-09-11T18:24:29.930Z,55.34
2022-09-11T18:27:00.865Z,55.27
2022-09-11T18:29:30.172Z,55.07
2022-09-11T18:31:59.876Z,55.32
2022-09-11T18:34:31.162Z,55.60
2022-09-11T18:36:59.981Z,55.62
2022-09-11T18:39:28.132Z,55.68
2022-09-11T18:41:56.037Z,55.87
2022-09-11T18:44:25.269Z,55.73
2022-09-11T18:46:53.718Z,55.87
2022-09-11T18:49:21.821Z,55.90
2022-09-11T18:51:51.207Z,56.04
2022-09-11T18:54:20.144Z,55.94
2022-09-11T18:56:48.588Z,56.07
2022-09-11T18:59:16.484Z,56.03
2022-09-11T19:01:44.598Z,56.22
2022-09-11T19:04:13.082Z,56.30
2022-09-11T19:06:41.145Z,56.28
2022-09-11T19:09:12.687Z,56.47
2022-09-11T19:11:40.605Z,56.52
2022-09-11T19:14:09.170Z,56.38
2022-09-11T19:16:37.234Z,56.42
2022-09-11T19:19:06.973Z,56.55
2022-09-11T19:21:35.039Z,56.52
2022-09-11T19:24:03.443Z,56.67
2022-09-11T19:26:33.680Z,56.63
2022-09-11T19:29:01.920Z,56.71
2022-09-11T19:31:30.182Z,56.73
2022-09-11T19:34:00.257Z,56.86
2022-09-11T19:36:29.156Z,57.02
2022-09-11T19:39:00.538Z,56.96
2022-09-11T19:41:30.010Z,56.86
2022-09-11T19:44:01.613Z,56.91
2022-09-11T19:46:30.278Z,57.01
2022-09-11T19:49:00.493Z,56.96
2022-09-11T19:51:29.465Z,57.10
2022-09-11T19:53:58.181Z,57.00
2022-09-11T19:56:27.897Z,57.36
2022-09-11T19:58:56.016Z,57.29
2022-09-11T20:01:25.870Z,57.31
2022-09-11T20:03:54.656Z,57.11
2022-09-11T20:06:23.455Z,57.22
2022-09-11T20:09:02.925Z,57.26
2022-09-11T20:11:39.513Z,57.10
2022-09-11T20:14:07.417Z,57.46
2022-09-11T20:16:36.772Z,57.49
2022-09-11T20:19:06.585Z,57.49
2022-09-11T20:21:35.430Z,57.42
2022-09-11T20:24:04.842Z,57.52
2022-09-11T20:26:32.754Z,57.32
2022-09-11T20:29:01.963Z,57.41
2022-09-11T20:31:36.930Z,57.36
2022-09-11T20:34:09.851Z,57.51
2022-09-11T20:36:37.853Z,57.37
2022-09-11T20:39:05.779Z,57.49
2022-09-11T20:41:33.680Z,58.32
2022-09-11T20:44:07.558Z,58.46
2022-09-11T20:46:38.426Z,58.58
2022-09-11T20:49:06.383Z,58.42
2022-09-11T20:51:35.717Z,58.80
2022-09-11T20:54:03.626Z,58.62
2022-09-11T20:56:31.588Z,58.81
2022-09-11T20:59:00.639Z,59.20
2022-09-11T21:01:32.330Z,59.12
2022-09-11T21:04:00.575Z,59.28
2022-09-11T21:06:30.061Z,59.39
2022-09-11T21:09:00.586Z,59.23
2022-09-11T21:11:29.532Z,59.35
2022-09-11T21:13:57.479Z,59.49
2022-09-11T21:16:25.642Z,59.12
2022-09-11T21:18:54.551Z,59.39
2022-09-11T21:21:22.804Z,59.28
2022-09-11T21:23:50.691Z,59.65
2022-09-11T21:26:19.923Z,59.57
2022-09-11T21:28:47.985Z,59.58
2022-09-11T21:31:15.859Z,59.46
2022-09-11T21:33:44.137Z,59.50
2022-09-11T21:36:12.090Z,59.56
2022-09-11T21:38:40.020Z,59.48
2022-09-11T21:41:09.087Z,59.62
2022-09-11T21:43:38.552Z,59.68
2022-09-11T21:46:08.487Z,59.54
2022-09-11T21:48:36.541Z,60.13
2022-09-11T21:51:09.778Z,59.81
2022-09-11T21:53:37.689Z,59.84
2022-09-11T21:56:05.856Z,59.75
2022-09-11T21:58:33.703Z,59.99
2022-09-11T22:01:05.922Z,59.83
2022-09-11T22:03:34.486Z,59.72
2022-09-11T22:06:06.365Z,59.81
2022-09-11T22:08:35.325Z,59.69
2022-09-11T22:11:03.735Z,59.92
2022-09-11T22:13:31.621Z,59.79
2022-09-11T22:16:00.628Z,59.98
2022-09-11T22:18:29.928Z,60.06
2022-09-11T22:21:00.475Z,60.03
2022-09-11T22:23:29.420Z,60.10
2022-09-11T22:26:00.404Z,59.85
2022-09-11T22:28:28.329Z,59.93
2022-09-11T22:30:56.224Z,59.36
2022-09-11T22:33:24.316Z,59.61
2022-09-11T22:35:53.562Z,59.59
2022-09-11T22:38:21.473Z,59.55
2022-09-11T22:40:53.603Z,59.69
2022-09-11T22:43:21.651Z,59.50
2022-09-11T22:45:52.801Z,59.83
2022-09-11T22:48:23.678Z,59.34
2022-09-11T22:50:54.159Z,59.36
2022-09-11T22:53:22.197Z,59.14
2022-09-11T22:55:50.218Z,59.35
2022-09-11T22:58:21.051Z,59.31
2022-09-11T23:00:49.747Z,59.02
2022-09-11T23:03:17.667Z,59.19
2022-09-11T23:06:02.905Z,59.30
2022-09-11T23:08:37.008Z,59.65
2022-09-11T23:11:07.161Z,59.63
2022-09-11T23:13:35.476Z,59.65
2022-09-11T23:16:11.301Z,59.68
2022-09-11T23:18:39.325Z,59.64
2022-09-11T23:21:07.332Z,59.51
2022-09-11T23:23:40.952Z,59.56
2022-09-11T23:26:08.842Z,59.77
2022-09-11T23:28:36.801Z,59.63
2022-09-11T23:31:04.873Z,59.98
2022-09-11T23:33:32.783Z,59.72
2022-09-11T23:36:05.024Z,59.72
2022-09-11T23:38:32.914Z,59.85
2022-09-11T23:41:02.203Z,59.50
2022-09-11T23:43:30.117Z,59.74
2022-09-11T23:45:58.048Z,59.63
2022-09-11T23:48:26.036Z,59.67
2022-09-11T23:50:53.942Z,59.98
2022-09-11T23:53:21.831Z,59.82
2022-09-11T23:55:49.763Z,59.83
2022-09-11T23:58:19.026Z,59.98
